Lake Sumner, New Mexico
Current Conditions -  °F | °C
As of 7:56 AM on Tuesday 21 Oct 2014 (Local Time) from K4MR Reporting Station
Broken Clouds Broken Clouds  
Wind Chill: 53°   Ceiling: 7000
Heat Index: 53°   Visibility: 10mi
Dew Point: 52°   Wind: 3mph
Humidity: 97%   Direction: 180°S
Pressure: 30.18"   Gusts: NA
Location:  34.3001°N, 104.256°W
Report Text: K4MR 211356Z AUTO 18003KT 10SM FEW001 BKN070 11/11 A3018 RMK AO2 SLP193 T01140109
Loading
Personal Weather Stations






























Interactive Weather Map New forecast layout! Learn more

10-Day Weather Forecast

Advertisements
Track Severe Weather on mobile